createdAt,value
2023-01-25T00:00:08.939Z,27.50
2023-01-25T00:01:08.909Z,25.60
2023-01-25T00:02:08.919Z,23.20
2023-01-25T00:03:08.994Z,25.10
2023-01-25T00:04:08.868Z,23.60
2023-01-25T00:05:09.229Z,23.50
2023-01-25T00:06:08.859Z,23.00
2023-01-25T00:07:08.843Z,24.40
2023-01-25T00:08:08.859Z,23.90
2023-01-25T00:09:08.816Z,22.90
2023-01-25T00:10:08.806Z,23.50
2023-01-25T00:11:08.791Z,23.60
2023-01-25T00:12:08.787Z,23.20
2023-01-25T00:13:08.792Z,25.60
2023-01-25T00:14:08.752Z,24.40
2023-01-25T00:15:09.240Z,25.30
2023-01-25T00:16:08.799Z,24.30
2023-01-25T00:17:08.758Z,25.50
2023-01-25T00:18:08.730Z,25.70
2023-01-25T00:19:08.696Z,25.40
2023-01-25T00:20:08.711Z,24.00
2023-01-25T00:21:08.690Z,24.70
2023-01-25T00:22:08.675Z,24.00
2023-01-25T00:23:08.678Z,23.70
2023-01-25T00:24:08.716Z,24.70
2023-01-25T00:25:08.946Z,25.20
2023-01-25T00:26:08.630Z,22.80
2023-01-25T00:27:08.655Z,25.00
2023-01-25T00:28:08.629Z,24.50
2023-01-25T00:29:08.598Z,23.50
2023-01-25T00:30:08.632Z,24.30
2023-01-25T00:31:08.584Z,22.60
2023-01-25T00:32:08.672Z,24.00
2023-01-25T00:33:08.572Z,21.20
2023-01-25T00:34:08.552Z,24.40
2023-01-25T00:35:09.021Z,23.50
2023-01-25T00:36:08.585Z,23.20
2023-01-25T00:37:08.523Z,21.20
2023-01-25T00:38:08.559Z,21.70
2023-01-25T00:39:08.495Z,25.90
2023-01-25T00:40:08.509Z,23.50
2023-01-25T00:41:08.475Z,23.60
2023-01-25T00:42:08.500Z,23.70
2023-01-25T00:43:08.499Z,20.10
2023-01-25T00:44:08.438Z,22.00
2023-01-25T00:45:08.880Z,24.00
2023-01-25T00:46:08.473Z,23.20
2023-01-25T00:47:08.405Z,23.80
2023-01-25T00:48:08.414Z,24.70
2023-01-25T00:49:08.401Z,23.40
2023-01-25T00:50:08.376Z,24.00
2023-01-25T00:51:08.379Z,22.80
2023-01-25T00:52:08.377Z,24.00
2023-01-25T00:53:08.367Z,22.40
2023-01-25T00:54:08.341Z,24.20
2023-01-25T00:55:08.614Z,22.20
2023-01-25T00:56:08.309Z,21.50
2023-01-25T00:57:08.302Z,21.10
2023-01-25T00:58:08.303Z,22.60
2023-01-25T00:59:08.286Z,22.50
2023-01-25T01:00:08.264Z,21.20
2023-01-25T01:01:08.337Z,23.00
2023-01-25T01:02:08.275Z,21.20
2023-01-25T01:03:08.244Z,20.90
2023-01-25T01:04:08.216Z,24.50
2023-01-25T01:05:08.591Z,23.80
2023-01-25T01:06:08.211Z,22.70
2023-01-25T01:07:08.184Z,23.70
2023-01-25T01:08:08.217Z,21.40
2023-01-25T01:09:08.175Z,25.20
2023-01-25T01:10:08.162Z,22.20
2023-01-25T01:11:08.148Z,22.10
2023-01-25T01:12:08.143Z,21.90
2023-01-25T01:13:08.137Z,22.90
2023-01-25T01:14:08.139Z,21.70
2023-01-25T01:15:08.503Z,22.90
2023-01-25T01:16:08.284Z,23.50
2023-01-25T01:17:08.091Z,22.00
2023-01-25T01:18:08.106Z,25.00
2023-01-25T01:19:08.088Z,24.60
2023-01-25T01:20:08.062Z,23.50
2023-01-25T01:21:08.040Z,22.10
2023-01-25T01:22:08.033Z,25.90
2023-01-25T01:23:08.088Z,25.30
2023-01-25T01:24:08.139Z,24.50
2023-01-25T01:25:08.375Z,24.00
2023-01-25T01:26:07.981Z,25.30
2023-01-25T01:27:07.975Z,24.00
2023-01-25T01:28:07.997Z,24.80
2023-01-25T01:29:07.951Z,25.00
2023-01-25T01:30:07.960Z,25.50
2023-01-25T01:31:07.940Z,27.00
2023-01-25T01:32:08.036Z,24.00
2023-01-25T01:33:07.944Z,26.50
2023-01-25T01:34:07.916Z,22.80
2023-01-25T01:35:08.215Z,24.70
2023-01-25T01:36:07.911Z,23.30
2023-01-25T01:37:07.875Z,25.90
2023-01-25T01:38:07.867Z,25.80
2023-01-25T01:39:07.859Z,26.10
2023-01-25T01:40:07.874Z,24.30
2023-01-25T01:41:07.821Z,23.50
2023-01-25T01:42:07.834Z,23.20
2023-01-25T01:43:07.804Z,22.90
2023-01-25T01:44:07.807Z,24.50
2023-01-25T01:45:08.206Z,23.10
2023-01-25T01:46:07.821Z,21.80
2023-01-25T01:47:07.770Z,25.80
2023-01-25T01:48:07.791Z,24.10
2023-01-25T01:49:07.752Z,24.40
2023-01-25T01:50:07.728Z,22.90
2023-01-25T01:51:07.716Z,26.10
2023-01-25T01:52:07.703Z,26.80
2023-01-25T01:53:07.689Z,28.10
2023-01-25T01:54:07.726Z,27.20
2023-01-25T01:55:08.074Z,25.30
2023-01-25T01:56:07.668Z,23.60
2023-01-25T01:57:07.676Z,26.70
2023-01-25T01:58:07.675Z,25.10
2023-01-25T01:59:07.651Z,25.10
2023-01-25T02:00:07.616Z,24.60
2023-01-25T02:01:07.654Z,25.80
2023-01-25T02:02:07.693Z,25.70
2023-01-25T02:03:07.585Z,25.00
2023-01-25T02:04:07.611Z,25.20
2023-01-25T02:05:07.970Z,25.90
2023-01-25T02:06:07.551Z,26.60
2023-01-25T02:07:07.575Z,27.60
2023-01-25T02:08:07.531Z,26.60
2023-01-25T02:09:07.538Z,29.50
2023-01-25T02:10:07.514Z,27.20
2023-01-25T02:11:07.522Z,27.70
2023-01-25T02:12:07.521Z,28.20
2023-01-25T02:13:07.474Z,27.50
2023-01-25T02:14:07.512Z,27.60
2023-01-25T02:15:07.872Z,26.40
2023-01-25T02:16:07.463Z,29.40
2023-01-25T02:17:07.468Z,28.90
2023-01-25T02:18:07.446Z,27.70
2023-01-25T02:19:07.437Z,29.30
2023-01-25T02:20:07.433Z,29.30
2023-01-25T02:21:07.390Z,27.70
2023-01-25T02:22:07.384Z,29.80
2023-01-25T02:23:07.377Z,28.90
2023-01-25T02:24:07.458Z,27.60
2023-01-25T02:25:07.774Z,26.20
2023-01-25T02:26:07.393Z,28.20
2023-01-25T02:27:07.323Z,26.80
2023-01-25T02:28:07.320Z,25.30
2023-01-25T02:29:07.347Z,25.20
2023-01-25T02:30:07.287Z,25.70
2023-01-25T02:31:07.465Z,27.70
2023-01-25T02:32:07.410Z,28.80
2023-01-25T02:33:07.295Z,25.80
2023-01-25T02:34:07.259Z,25.60
2023-01-25T02:35:07.529Z,27.30
2023-01-25T02:36:07.231Z,30.10
2023-01-25T02:37:07.226Z,26.50
2023-01-25T02:38:07.212Z,25.10
2023-01-25T02:39:07.217Z,27.00
2023-01-25T02:40:07.174Z,23.90
2023-01-25T02:41:07.172Z,26.60
2023-01-25T02:42:07.159Z,27.00
2023-01-25T02:43:07.152Z,25.00
2023-01-25T02:44:07.154Z,27.50
2023-01-25T02:45:07.480Z,24.50
2023-01-25T02:46:07.191Z,26.60
2023-01-25T02:47:07.115Z,26.30
2023-01-25T02:48:07.094Z,24.20
2023-01-25T02:49:07.107Z,24.70
2023-01-25T02:50:07.099Z,25.10
2023-01-25T02:51:07.067Z,24.20
2023-01-25T02:52:07.055Z,26.20
2023-01-25T02:53:07.083Z,24.00
2023-01-25T02:54:07.060Z,25.10
2023-01-25T02:55:07.327Z,20.70
2023-01-25T02:56:07.008Z,20.20
2023-01-25T02:57:07.006Z,20.90
2023-01-25T02:58:06.991Z,28.30
2023-01-25T02:59:07.033Z,23.20
2023-01-25T03:00:06.971Z,19.90
2023-01-25T03:01:07.031Z,21.90
2023-01-25T03:02:06.955Z,19.10
2023-01-25T03:03:06.930Z,20.00
2023-01-25T03:04:06.944Z,19.90
2023-01-25T03:05:07.282Z,20.00
2023-01-25T03:06:06.911Z,20.60
2023-01-25T03:07:06.918Z,19.50
2023-01-25T03:08:06.881Z,18.40
2023-01-25T03:09:06.890Z,24.20
2023-01-25T03:10:06.871Z,27.60
2023-01-25T03:11:06.849Z,20.90
2023-01-25T03:12:06.857Z,21.50
2023-01-25T03:13:06.861Z,19.50
2023-01-25T03:14:06.836Z,19.30
2023-01-25T03:15:07.205Z,20.90
2023-01-25T03:16:06.833Z,20.10
2023-01-25T03:17:06.782Z,19.50
2023-01-25T03:18:06.811Z,21.10
2023-01-25T03:19:06.794Z,19.60
2023-01-25T03:20:06.755Z,20.10
2023-01-25T03:21:06.780Z,20.80
2023-01-25T03:22:06.736Z,20.00
2023-01-25T03:23:06.731Z,20.40
2023-01-25T03:24:06.820Z,20.60
2023-01-25T03:25:07.103Z,21.10
2023-01-25T03:26:06.691Z,18.80
2023-01-25T03:27:06.684Z,18.70
2023-01-25T03:28:06.672Z,19.30
2023-01-25T03:29:06.674Z,18.80
2023-01-25T03:30:06.662Z,20.60
2023-01-25T03:31:06.688Z,19.40
2023-01-25T03:32:06.860Z,19.60
2023-01-25T03:33:06.619Z,21.00
2023-01-25T03:34:06.636Z,20.00
2023-01-25T03:35:06.926Z,20.70
2023-01-25T03:36:06.664Z,20.90
2023-01-25T03:37:06.570Z,21.20
2023-01-25T03:38:06.587Z,22.10
2023-01-25T03:39:06.567Z,23.10
2023-01-25T03:40:06.541Z,23.30
2023-01-25T03:41:06.529Z,21.30
2023-01-25T03:42:06.546Z,20.50
2023-01-25T03:43:06.504Z,21.90
2023-01-25T03:44:06.512Z,23.00
2023-01-25T03:45:06.530Z,22.10
2023-01-25T03:46:06.470Z,22.70
2023-01-25T03:47:06.632Z,23.90
2023-01-25T03:48:07.211Z,22.40
2023-01-25T03:49:06.459Z,21.30
2023-01-25T03:50:06.432Z,22.70
2023-01-25T03:51:06.422Z,21.30
2023-01-25T03:52:06.434Z,22.70
2023-01-25T03:53:06.419Z,22.70
2023-01-25T03:54:06.399Z,22.60
2023-01-25T03:55:06.768Z,21.70
2023-01-25T03:56:06.383Z,22.70
2023-01-25T03:57:06.368Z,21.40
2023-01-25T03:58:06.352Z,20.50
2023-01-25T03:59:06.372Z,22.60
2023-01-25T04:00:06.315Z,21.80
2023-01-25T04:01:06.408Z,20.80
2023-01-25T04:02:06.363Z,22.90
2023-01-25T04:03:06.366Z,25.90
2023-01-25T04:04:06.300Z,22.50
2023-01-25T04:05:06.900Z,22.70
2023-01-25T04:06:06.259Z,21.60
2023-01-25T04:07:06.258Z,22.80
2023-01-25T04:08:06.244Z,24.70
2023-01-25T04:09:06.281Z,22.20
2023-01-25T04:10:06.220Z,23.10
2023-01-25T04:11:06.236Z,22.00
2023-01-25T04:12:06.191Z,22.80
2023-01-25T04:13:06.184Z,20.80
2023-01-25T04:14:06.203Z,22.70
2023-01-25T04:15:06.196Z,22.00
2023-01-25T04:16:06.180Z,23.20
2023-01-25T04:17:06.175Z,21.20
2023-01-25T04:18:06.129Z,23.30
2023-01-25T04:19:06.132Z,23.30
2023-01-25T04:20:06.133Z,23.60
2023-01-25T04:21:06.116Z,22.20
2023-01-25T04:22:06.084Z,24.30
2023-01-25T04:23:06.064Z,21.40
2023-01-25T04:24:06.087Z,22.60
2023-01-25T04:25:06.132Z,23.20
2023-01-25T04:26:06.043Z,25.30
2023-01-25T04:27:06.050Z,22.50
2023-01-25T04:28:06.025Z,26.10
2023-01-25T04:29:06.022Z,22.10
2023-01-25T04:30:06.032Z,23.30
2023-01-25T04:31:05.984Z,22.90
2023-01-25T04:32:06.081Z,23.10
2023-01-25T04:33:05.986Z,22.90
2023-01-25T04:34:05.952Z,20.60
2023-01-25T04:35:05.995Z,23.00
2023-01-25T04:36:05.975Z,24.10
2023-01-25T04:37:05.933Z,24.10
2023-01-25T04:38:05.914Z,22.00
2023-01-25T04:39:05.926Z,21.80
2023-01-25T04:40:05.917Z,23.70
2023-01-25T04:41:05.891Z,23.90
2023-01-25T04:42:05.875Z,21.40
2023-01-25T04:43:05.858Z,23.40
2023-01-25T04:44:05.850Z,20.90
2023-01-25T04:45:05.856Z,23.60
2023-01-25T04:46:05.912Z,22.20
2023-01-25T04:47:05.827Z,21.90
2023-01-25T04:48:05.803Z,23.20
2023-01-25T04:49:05.806Z,21.90
2023-01-25T04:50:06.554Z,22.70
2023-01-25T04:51:05.779Z,20.70
2023-01-25T04:52:05.787Z,19.80
2023-01-25T04:53:05.753Z,19.70
2023-01-25T04:54:05.747Z,21.80
2023-01-25T04:55:05.776Z,20.90
2023-01-25T04:56:05.720Z,22.50
2023-01-25T04:57:05.702Z,24.10
2023-01-25T04:58:05.718Z,20.40
2023-01-25T04:59:05.687Z,20.00
2023-01-25T05:00:05.685Z,20.10
2023-01-25T05:01:05.740Z,21.10
2023-01-25T05:02:05.684Z,21.70
2023-01-25T05:03:05.643Z,23.80
2023-01-25T05:04:05.658Z,19.90
2023-01-25T05:05:05.638Z,20.30
2023-01-25T05:06:05.614Z,21.20
2023-01-25T05:07:05.608Z,22.20
2023-01-25T05:08:05.603Z,21.20
2023-01-25T05:09:05.581Z,22.50
2023-01-25T05:10:05.589Z,21.80
2023-01-25T05:11:05.569Z,21.20
2023-01-25T05:12:05.556Z,22.80
2023-01-25T05:13:05.566Z,21.50
2023-01-25T05:14:05.521Z,20.80
2023-01-25T05:15:05.545Z,21.80
2023-01-25T05:16:05.507Z,20.90
2023-01-25T05:17:05.489Z,23.10
2023-01-25T05:18:05.491Z,21.90
2023-01-25T05:19:05.500Z,21.50
2023-01-25T05:20:05.525Z,21.40
2023-01-25T05:21:05.452Z,21.70
2023-01-25T05:22:05.432Z,21.90
2023-01-25T05:23:05.428Z,21.10
2023-01-25T05:24:05.496Z,21.80
2023-01-25T05:25:05.420Z,20.50
2023-01-25T05:26:05.394Z,20.90
2023-01-25T05:27:05.392Z,20.10
2023-01-25T05:28:05.407Z,18.90
2023-01-25T05:29:05.363Z,23.20
2023-01-25T05:30:05.366Z,21.60
2023-01-25T05:31:05.449Z,20.80
2023-01-25T05:32:05.412Z,22.70
2023-01-25T05:33:05.366Z,20.30
2023-01-25T05:34:05.312Z,21.20
2023-01-25T05:35:05.329Z,21.40
2023-01-25T05:36:05.320Z,21.00
2023-01-25T05:37:05.278Z,20.60
2023-01-25T05:38:05.277Z,21.70
2023-01-25T05:39:05.252Z,22.20
2023-01-25T05:40:05.277Z,22.00
2023-01-25T05:41:05.239Z,20.90
2023-01-25T05:42:05.228Z,21.30
2023-01-25T05:43:05.211Z,19.70
2023-01-25T05:44:05.211Z,21.70
2023-01-25T05:45:05.236Z,21.90
2023-01-25T05:46:05.274Z,22.00
2023-01-25T05:47:05.175Z,20.30
2023-01-25T05:48:05.177Z,20.80
2023-01-25T05:49:05.146Z,20.70
2023-01-25T05:50:05.529Z,20.80
2023-01-25T05:51:05.119Z,20.80
2023-01-25T05:52:05.113Z,21.20
2023-01-25T05:53:05.102Z,21.80
2023-01-25T05:54:05.126Z,20.60
2023-01-25T05:55:05.094Z,22.60
2023-01-25T05:56:05.080Z,20.80
2023-01-25T05:57:05.056Z,21.20
2023-01-25T05:58:05.062Z,22.00
2023-01-25T05:59:05.052Z,21.30
2023-01-25T06:00:05.041Z,21.50
2023-01-25T06:01:05.017Z,21.70
2023-01-25T06:02:05.025Z,22.20
2023-01-25T06:03:05.175Z,20.80
2023-01-25T06:04:04.991Z,23.80
2023-01-25T06:05:04.995Z,21.40
2023-01-25T06:06:04.982Z,20.10
2023-01-25T06:07:04.968Z,21.70
2023-01-25T06:08:04.947Z,22.70
2023-01-25T06:09:04.933Z,22.00
2023-01-25T06:10:04.964Z,21.20
2023-01-25T06:11:04.902Z,21.70
2023-01-25T06:12:04.905Z,20.10
2023-01-25T06:13:04.907Z,21.90
2023-01-25T06:14:04.883Z,21.40
2023-01-25T06:15:04.909Z,21.50
2023-01-25T06:16:04.973Z,21.10
2023-01-25T06:17:04.871Z,22.00
2023-01-25T06:18:04.839Z,20.40
2023-01-25T06:19:04.848Z,21.90
2023-01-25T06:20:04.831Z,22.80
2023-01-25T06:21:04.805Z,21.90
2023-01-25T06:22:04.795Z,23.50
2023-01-25T06:23:04.823Z,22.40
2023-01-25T06:24:04.844Z,22.10
2023-01-25T06:25:04.866Z,23.90
2023-01-25T06:26:04.753Z,21.40
2023-01-25T06:27:04.784Z,24.00
2023-01-25T06:28:04.729Z,21.50
2023-01-25T06:29:04.767Z,22.90
2023-01-25T06:30:04.731Z,22.90
2023-01-25T06:31:04.786Z,25.20
2023-01-25T06:32:04.698Z,22.40
2023-01-25T06:33:04.671Z,23.40
2023-01-25T06:34:04.688Z,22.90
2023-01-25T06:35:04.659Z,22.70
2023-01-25T06:36:04.646Z,23.50
2023-01-25T06:37:04.655Z,24.80
2023-01-25T06:38:04.614Z,25.20
2023-01-25T06:39:04.607Z,24.90
2023-01-25T06:40:04.621Z,23.60
2023-01-25T06:41:04.588Z,25.30
2023-01-25T06:42:04.593Z,25.70
2023-01-25T06:43:04.560Z,25.40
2023-01-25T06:44:04.546Z,23.60
2023-01-25T06:45:04.577Z,23.50
2023-01-25T06:46:04.528Z,25.40
2023-01-25T06:47:04.527Z,22.80
2023-01-25T06:48:04.506Z,24.40
2023-01-25T06:49:04.517Z,24.60
2023-01-25T06:50:04.523Z,25.90
2023-01-25T06:51:04.504Z,25.90
2023-01-25T06:52:04.474Z,26.90
2023-01-25T06:53:04.458Z,27.30
2023-01-25T06:54:04.484Z,26.50
2023-01-25T06:55:04.450Z,25.00
2023-01-25T06:56:04.429Z,25.80
2023-01-25T06:57:04.415Z,24.30
2023-01-25T06:58:04.407Z,26.60
2023-01-25T06:59:04.387Z,24.20
2023-01-25T07:00:04.395Z,26.20
2023-01-25T07:01:04.402Z,25.30
2023-01-25T07:02:04.466Z,30.10
2023-01-25T07:03:04.372Z,25.20
2023-01-25T07:04:04.348Z,25.80
2023-01-25T07:05:04.333Z,24.30
2023-01-25T07:06:04.354Z,23.50
2023-01-25T07:07:04.313Z,26.60
2023-01-25T07:08:04.307Z,24.20
2023-01-25T07:09:04.319Z,24.80
2023-01-25T07:10:04.283Z,24.30
2023-01-25T07:11:04.299Z,27.20
2023-01-25T07:12:04.245Z,26.00
2023-01-25T07:13:04.261Z,27.50
2023-01-25T07:14:04.233Z,23.60
2023-01-25T07:15:04.220Z,27.10
2023-01-25T07:16:04.243Z,28.20
2023-01-25T07:17:04.203Z,25.70
2023-01-25T07:18:15.659Z,26.20
2023-01-25T07:19:04.207Z,26.30
2023-01-25T07:20:04.164Z,26.30
2023-01-25T07:21:04.171Z,27.50
2023-01-25T07:22:04.150Z,26.20
2023-01-25T07:23:04.134Z,25.60
2023-01-25T07:24:04.198Z,26.00
2023-01-25T07:25:04.143Z,28.20
2023-01-25T07:26:04.186Z,26.20
2023-01-25T07:27:04.097Z,27.50
2023-01-25T07:28:04.146Z,27.60
2023-01-25T07:29:04.063Z,28.70
2023-01-25T07:30:04.060Z,27.40
2023-01-25T07:31:04.063Z,27.20
2023-01-25T07:32:04.601Z,26.00
2023-01-25T07:33:04.040Z,26.20
2023-01-25T07:34:04.012Z,27.20
2023-01-25T07:35:04.011Z,24.30
2023-01-25T07:36:04.035Z,26.20
2023-01-25T07:37:03.998Z,27.00
2023-01-25T07:38:03.978Z,26.80
2023-01-25T07:39:03.981Z,27.90
2023-01-25T07:40:03.966Z,26.60
2023-01-25T07:41:03.952Z,26.70
2023-01-25T07:42:03.943Z,28.80
2023-01-25T07:43:03.912Z,28.10
2023-01-25T07:44:03.919Z,28.50
2023-01-25T07:45:03.920Z,25.80
2023-01-25T07:46:03.895Z,28.40
2023-01-25T07:47:03.878Z,27.20
2023-01-25T07:48:03.860Z,25.70
2023-01-25T07:49:03.878Z,25.90
2023-01-25T07:50:03.846Z,26.30
2023-01-25T07:51:03.848Z,28.60
2023-01-25T07:52:03.851Z,28.40
2023-01-25T07:53:03.821Z,26.90
2023-01-25T07:54:03.800Z,27.40
2023-01-25T07:55:03.804Z,29.40
2023-01-25T07:56:03.793Z,28.10
2023-01-25T07:57:03.757Z,29.90
2023-01-25T07:58:03.759Z,28.90
2023-01-25T07:59:03.776Z,29.90
2023-01-25T08:00:03.739Z,28.30
2023-01-25T08:01:03.732Z,29.10
2023-01-25T08:02:03.736Z,28.30
2023-01-25T08:03:03.716Z,27.70
2023-01-25T08:04:03.687Z,28.90
2023-01-25T08:05:03.694Z,29.50
2023-01-25T08:06:03.700Z,30.60
2023-01-25T08:07:03.669Z,28.10
2023-01-25T08:08:03.694Z,30.70
2023-01-25T08:09:03.653Z,28.40
2023-01-25T08:10:03.617Z,29.90
2023-01-25T08:11:03.626Z,33.00
2023-01-25T08:12:03.610Z,31.10
2023-01-25T08:13:03.612Z,28.80
2023-01-25T08:14:03.578Z,30.90
2023-01-25T08:15:03.581Z,31.80
2023-01-25T08:16:03.589Z,30.50
2023-01-25T08:17:03.556Z,31.00
2023-01-25T08:18:03.531Z,31.30
2023-01-25T08:19:03.554Z,31.10
2023-01-25T08:20:03.525Z,30.00
2023-01-25T08:21:03.552Z,28.90
2023-01-25T08:22:03.502Z,31.80
2023-01-25T08:23:03.486Z,27.90
2023-01-25T08:24:03.553Z,32.50
2023-01-25T08:25:03.503Z,32.60
2023-01-25T08:26:03.473Z,30.20
2023-01-25T08:27:03.443Z,33.00
2023-01-25T08:28:03.432Z,31.60
2023-01-25T08:29:03.457Z,31.60
2023-01-25T08:30:03.422Z,32.00
2023-01-25T08:31:03.407Z,32.20
2023-01-25T08:32:03.495Z,34.10
2023-01-25T08:33:03.395Z,32.20
2023-01-25T08:34:03.377Z,34.00
2023-01-25T08:35:03.358Z,33.10
2023-01-25T08:36:03.373Z,31.20
2023-01-25T08:37:03.340Z,32.80
2023-01-25T08:38:03.337Z,33.60
2023-01-25T08:39:03.309Z,32.10
2023-01-25T08:40:03.299Z,34.00
2023-01-25T08:41:03.311Z,35.80
2023-01-25T08:42:03.298Z,35.80
2023-01-25T08:43:03.293Z,32.70
2023-01-25T08:44:03.277Z,37.30
2023-01-25T08:45:03.250Z,33.00
2023-01-25T08:46:03.253Z,34.30
2023-01-25T08:47:03.247Z,34.50
2023-01-25T08:48:03.214Z,33.50
2023-01-25T08:49:03.219Z,35.90
2023-01-25T08:50:03.235Z,33.10
2023-01-25T08:51:03.198Z,36.40
2023-01-25T08:52:03.177Z,34.80
2023-01-25T08:53:03.177Z,32.10
2023-01-25T08:54:03.148Z,33.90
2023-01-25T08:55:03.161Z,34.70
2023-01-25T08:56:03.155Z,37.30
2023-01-25T08:57:03.218Z,35.70
2023-01-25T08:58:03.103Z,36.90
2023-01-25T08:59:03.100Z,35.20
2023-01-25T09:00:03.105Z,35.40
2023-01-25T09:01:03.090Z,34.00
2023-01-25T09:02:03.133Z,36.70
2023-01-25T09:03:03.061Z,32.60
2023-01-25T09:04:03.095Z,37.00
2023-01-25T09:05:03.089Z,39.40
2023-01-25T09:06:03.040Z,38.10
2023-01-25T09:07:03.020Z,40.00
2023-01-25T09:08:03.006Z,38.00
2023-01-25T09:09:03.018Z,41.50
2023-01-25T09:10:02.980Z,37.60
2023-01-25T09:11:02.988Z,39.50
2023-01-25T09:12:02.962Z,38.00
2023-01-25T09:13:02.965Z,40.20
2023-01-25T09:14:02.935Z,37.70
2023-01-25T09:15:02.920Z,40.10
2023-01-25T09:16:02.943Z,39.00
2023-01-25T09:17:02.903Z,39.90
2023-01-25T09:18:02.904Z,41.10
2023-01-25T09:19:03.148Z,37.90
2023-01-25T09:20:02.867Z,40.60
2023-01-25T09:21:02.871Z,38.80
2023-01-25T09:22:02.876Z,38.20
2023-01-25T09:23:02.852Z,37.50
2023-01-25T09:24:07.540Z,39.80
2023-01-25T09:25:02.837Z,41.30
2023-01-25T09:26:02.821Z,40.70
2023-01-25T09:27:02.830Z,39.10
2023-01-25T09:28:02.791Z,39.80
2023-01-25T09:29:02.786Z,40.10
2023-01-25T09:30:04.208Z,39.60
2023-01-25T09:31:20.487Z,41.10
2023-01-25T09:32:02.976Z,38.40
2023-01-25T09:33:02.887Z,40.60
2023-01-25T09:34:02.727Z,43.70
2023-01-25T09:35:02.709Z,40.50
2023-01-25T09:36:02.711Z,40.40
2023-01-25T09:37:02.727Z,43.60
2023-01-25T09:38:02.685Z,42.80
2023-01-25T09:39:02.667Z,42.80
2023-01-25T09:40:02.655Z,45.50
2023-01-25T09:41:02.666Z,46.50
2023-01-25T09:42:06.626Z,43.60
2023-01-25T09:43:02.631Z,42.10
2023-01-25T09:44:14.136Z,44.00
2023-01-25T09:45:02.607Z,43.80
2023-01-25T09:46:02.675Z,42.50
2023-01-25T09:47:02.580Z,46.40
2023-01-25T09:48:02.577Z,43.20
2023-01-25T09:49:07.799Z,44.70
2023-01-25T09:50:02.568Z,44.10
2023-01-25T09:51:02.577Z,44.10
2023-01-25T09:52:02.516Z,43.10
2023-01-25T09:53:02.538Z,44.80
2023-01-25T09:54:02.526Z,41.80
2023-01-25T09:55:02.498Z,44.20
2023-01-25T09:56:02.572Z,44.60
2023-01-25T09:57:02.473Z,44.50
2023-01-25T09:58:02.458Z,44.50
2023-01-25T09:59:02.464Z,44.00
2023-01-25T10:00:03.244Z,43.40
2023-01-25T10:01:04.406Z,45.80
2023-01-25T10:02:02.473Z,47.70
2023-01-25T10:03:02.516Z,44.20
2023-01-25T10:04:02.394Z,46.00
2023-01-25T10:05:02.383Z,49.70
2023-01-25T10:06:02.403Z,43.30
2023-01-25T10:07:02.368Z,43.80
2023-01-25T10:08:02.462Z,44.10
2023-01-25T10:09:02.351Z,45.90
2023-01-25T10:10:02.337Z,45.80
2023-01-25T10:11:02.348Z,46.00
2023-01-25T10:12:02.303Z,45.50
2023-01-25T10:13:02.293Z,47.70
2023-01-25T10:14:02.282Z,39.70
2023-01-25T10:15:02.286Z,48.70
2023-01-25T10:16:02.341Z,42.30
2023-01-25T10:17:02.251Z,43.20
2023-01-25T10:18:02.256Z,41.40
2023-01-25T10:19:02.870Z,44.40
2023-01-25T10:20:02.235Z,42.90
2023-01-25T10:21:02.259Z,43.90
2023-01-25T10:22:02.207Z,45.00
2023-01-25T10:23:02.238Z,40.40
2023-01-25T10:24:02.221Z,44.50
2023-01-25T10:25:02.198Z,44.40
2023-01-25T10:26:02.207Z,44.00
2023-01-25T10:27:02.147Z,47.10
2023-01-25T10:28:02.140Z,42.90
2023-01-25T10:29:02.136Z,44.90
2023-01-25T10:30:02.115Z,43.30
2023-01-25T10:31:02.238Z,46.00
2023-01-25T10:32:02.094Z,39.70
2023-01-25T10:33:02.121Z,44.70
2023-01-25T10:34:02.078Z,44.10
2023-01-25T10:35:02.081Z,42.80
2023-01-25T10:36:02.069Z,40.60
2023-01-25T10:37:02.045Z,41.80
2023-01-25T10:38:02.032Z,43.10
2023-01-25T10:39:02.016Z,40.80
2023-01-25T10:40:02.022Z,41.00
2023-01-25T10:41:02.029Z,39.50
2023-01-25T10:42:01.994Z,40.20
2023-01-25T10:43:02.001Z,41.10
2023-01-25T10:44:01.966Z,41.40
2023-01-25T10:45:02.007Z,41.70
2023-01-25T10:46:01.962Z,39.60
2023-01-25T10:47:01.971Z,40.30
2023-01-25T10:48:01.923Z,41.00
2023-01-25T10:49:01.922Z,39.00
2023-01-25T10:50:01.912Z,38.50
2023-01-25T10:51:01.936Z,41.30
2023-01-25T10:52:01.889Z,38.90
2023-01-25T10:53:01.924Z,37.70
2023-01-25T10:54:01.859Z,40.10
2023-01-25T10:55:01.847Z,37.70
2023-01-25T10:56:01.869Z,38.50
2023-01-25T10:57:01.839Z,39.90
2023-01-25T10:58:01.817Z,37.90
2023-01-25T10:59:01.815Z,37.60
2023-01-25T11:00:01.789Z,38.80
2023-01-25T11:01:01.812Z,37.60
2023-01-25T11:02:01.818Z,39.20
2023-01-25T11:03:01.837Z,36.70
2023-01-25T11:04:01.757Z,36.60
2023-01-25T11:05:01.780Z,39.20
2023-01-25T11:06:01.994Z,41.90
2023-01-25T11:07:01.712Z,43.90
2023-01-25T11:08:01.698Z,41.60
2023-01-25T11:09:01.757Z,37.40
2023-01-25T11:10:01.681Z,41.80
2023-01-25T11:11:01.698Z,35.90
2023-01-25T11:12:01.692Z,38.80
2023-01-25T11:13:01.646Z,37.00
2023-01-25T11:14:01.643Z,35.00
2023-01-25T11:15:01.653Z,37.40
2023-01-25T11:16:01.844Z,37.60
2023-01-25T11:17:01.656Z,34.40
2023-01-25T11:18:01.640Z,34.80
2023-01-25T11:19:01.576Z,33.90
2023-01-25T11:20:01.575Z,35.20
2023-01-25T11:21:01.578Z,35.30
2023-01-25T11:22:01.596Z,35.40
2023-01-25T11:23:01.589Z,32.10
2023-01-25T11:24:01.590Z,34.10
2023-01-25T11:25:01.518Z,33.60
2023-01-25T11:26:01.518Z,33.20
2023-01-25T11:27:01.555Z,33.80
2023-01-25T11:28:01.511Z,34.20
2023-01-25T11:29:01.473Z,34.40
2023-01-25T11:30:01.497Z,31.40
2023-01-25T11:31:01.516Z,33.90
2023-01-25T11:32:01.592Z,34.60
2023-01-25T11:33:01.433Z,35.50
2023-01-25T11:34:01.419Z,30.90
2023-01-25T11:35:01.439Z,33.90
2023-01-25T11:36:01.441Z,32.50
2023-01-25T11:37:01.436Z,29.30
2023-01-25T11:38:01.377Z,31.70
2023-01-25T11:39:01.385Z,31.80
2023-01-25T11:40:01.359Z,33.70
2023-01-25T11:41:01.351Z,32.00
2023-01-25T11:42:01.372Z,31.70
2023-01-25T11:43:01.339Z,31.30
2023-01-25T11:44:01.319Z,29.60
2023-01-25T11:45:01.306Z,29.50
2023-01-25T11:46:01.384Z,31.40
2023-01-25T11:47:01.317Z,30.90
2023-01-25T11:48:01.299Z,31.70
2023-01-25T11:49:01.277Z,33.00
2023-01-25T11:50:01.269Z,32.10
2023-01-25T11:51:01.239Z,29.80
2023-01-25T11:52:01.256Z,32.00
2023-01-25T11:53:01.231Z,32.50
2023-01-25T11:54:01.206Z,32.90
2023-01-25T11:55:01.211Z,33.90
2023-01-25T11:56:01.199Z,31.30
2023-01-25T11:57:01.189Z,31.30
2023-01-25T11:58:01.219Z,32.80
2023-01-25T11:59:01.166Z,30.70
2023-01-25T12:00:01.147Z,31.50
2023-01-25T12:01:01.167Z,33.20
2023-01-25T12:02:01.149Z,33.80
2023-01-25T12:03:01.164Z,30.20
2023-01-25T12:04:01.167Z,32.40
2023-01-25T12:05:06.343Z,31.60
2023-01-25T12:06:01.085Z,31.90
2023-01-25T12:07:01.110Z,30.50
2023-01-25T12:08:01.057Z,29.00
2023-01-25T12:09:01.085Z,32.30
2023-01-25T12:10:01.032Z,29.60
2023-01-25T12:11:01.056Z,29.40
2023-01-25T12:12:01.044Z,33.10
2023-01-25T12:13:01.004Z,31.30
2023-01-25T12:14:01.009Z,31.10
2023-01-25T12:15:00.990Z,29.80
2023-01-25T12:16:01.011Z,31.90
2023-01-25T12:17:01.578Z,30.00
2023-01-25T12:18:00.955Z,29.90
2023-01-25T12:19:01.167Z,28.80
2023-01-25T12:20:00.931Z,30.10
2023-01-25T12:21:00.923Z,29.60
2023-01-25T12:22:00.918Z,31.20
2023-01-25T12:23:00.936Z,30.30
2023-01-25T12:24:00.908Z,32.20
2023-01-25T12:25:00.910Z,34.10
2023-01-25T12:26:00.859Z,31.70
2023-01-25T12:27:00.875Z,32.90
2023-01-25T12:28:00.872Z,31.80
2023-01-25T12:29:00.824Z,30.00
2023-01-25T12:30:00.826Z,32.60
2023-01-25T12:31:00.880Z,32.60
2023-01-25T12:32:00.811Z,33.80
2023-01-25T12:33:13.971Z,31.60
2023-01-25T12:34:03.430Z,34.30
2023-01-25T12:35:00.771Z,29.80
2023-01-25T12:36:00.768Z,30.20
2023-01-25T12:37:00.770Z,33.80
2023-01-25T12:38:00.729Z,31.20
2023-01-25T12:39:00.720Z,30.20
2023-01-25T12:40:00.760Z,32.80
2023-01-25T12:41:00.729Z,30.80
2023-01-25T12:42:00.704Z,28.00
2023-01-25T12:43:00.688Z,31.90
2023-01-25T12:44:00.676Z,33.20
2023-01-25T12:45:00.690Z,32.90
2023-01-25T12:46:00.644Z,32.80
2023-01-25T12:47:00.676Z,34.80
2023-01-25T12:48:00.631Z,32.80
2023-01-25T12:49:00.660Z,33.90
2023-01-25T12:50:00.634Z,30.60
2023-01-25T12:51:00.617Z,32.20
2023-01-25T12:52:00.694Z,33.70